Time;durP1;ratioP1;P1;durP2;ratioP2;P2;SDS_P1;SDS_P2;PMS_P1;PMS_P2;Temp;Humidity;BMP_temperature;BMP_pressure;BME280_temperature;BME280_humidity;BME280_pressure;Samples;Min_cycle;Max_cycle;Signal;HPM_P1;HPM_P2
2024/01/23 00:00:08;;;;;;;7.70;1.20;;;;;;;;;;4977353;28;20018;-77
2024/01/23 00:02:33;;;;;;;5.85;1.20;;;;;;;;;;4994534;28;20555;-77
2024/01/23 00:04:58;;;;;;;5.87;1.40;;;;;;;;;;4994485;28;20022;-77
2024/01/23 00:07:23;;;;;;;4.07;1.27;;;;;;;;;;4994492;28;20395;-77
2024/01/23 00:09:49;;;;;;;3.40;0.97;;;;;;;;;;4994500;28;20355;-77
2024/01/23 00:12:14;;;;;;;7.50;1.80;;;;;;;;;;4994798;28;20355;-77
2024/01/23 00:14:39;;;;;;;3.10;0.80;;;;;;;;;;4994952;28;20410;-77
2024/01/23 00:17:04;;;;;;;3.57;1.00;;;;;;;;;;4994347;28;20355;-77
2024/01/23 00:19:29;;;;;;;5.70;1.10;;;;;;;;;;4994288;28;20350;-77
2024/01/23 00:21:55;;;;;;;4.83;1.27;;;;;;;;;;4992677;28;20263;-76
2024/01/23 00:24:20;;;;;;;6.70;1.10;;;;;;;;;;4994184;28;20318;-76
2024/01/23 00:26:45;;;;;;;6.47;1.17;;;;;;;;;;4994273;28;20394;-77
2024/01/23 00:29:10;;;;;;;3.23;1.30;;;;;;;;;;4994227;28;20663;-77
2024/01/23 00:31:36;;;;;;;4.30;1.15;;;;;;;;;;4976696;28;20910;-77
2024/01/23 00:34:02;;;;;;;7.68;1.00;;;;;;;;;;4994086;28;20014;-77
2024/01/23 00:36:27;;;;;;;5.75;1.20;;;;;;;;;;4993948;28;20515;-77
2024/01/23 00:38:52;;;;;;;3.33;1.02;;;;;;;;;;4993919;28;20032;-76
2024/01/23 00:41:17;;;;;;;3.85;1.15;;;;;;;;;;4994328;28;20026;-76
2024/01/23 00:43:43;;;;;;;5.60;1.17;;;;;;;;;;4976332;28;20032;-76
2024/01/23 00:46:08;;;;;;;5.87;1.03;;;;;;;;;;4994030;28;20436;-76
2024/01/23 00:48:33;;;;;;;3.60;0.90;;;;;;;;;;4993915;28;20752;-77
2024/01/23 00:50:58;;;;;;;6.18;1.10;;;;;;;;;;4993871;28;20049;-77
2024/01/23 00:53:24;;;;;;;4.25;0.98;;;;;;;;;;4993157;28;20049;-77
2024/01/23 00:55:50;;;;;;;5.63;1.15;;;;;;;;;;4973940;28;20058;-77
2024/01/23 00:58:15;;;;;;;5.05;0.95;;;;;;;;;;4991446;28;20109;-77
2024/01/23 01:00:44;;;;;;;11.48;1.00;;;;;;;;;;4991821;28;20026;-77
2024/01/23 01:03:09;;;;;;;3.20;1.10;;;;;;;;;;4992443;28;20026;-77
2024/01/23 01:05:35;;;;;;;5.80;1.20;;;;;;;;;;4992703;28;20026;-76
2024/01/23 01:08:00;;;;;;;2.85;0.98;;;;;;;;;;4992384;28;20073;-75
2024/01/23 01:10:29;;;;;;;5.47;1.30;;;;;;;;;;4976543;28;20556;-77
2024/01/23 01:12:54;;;;;;;4.35;0.98;;;;;;;;;;4994645;28;20022;-78
2024/01/23 01:15:19;;;;;;;9.40;1.35;;;;;;;;;;4994878;28;20085;-78
2024/01/23 01:17:45;;;;;;;4.90;1.13;;;;;;;;;;4994933;28;20031;-78
2024/01/23 01:20:10;;;;;;;5.72;1.13;;;;;;;;;;4976758;28;20045;-76
2024/01/23 01:22:35;;;;;;;5.22;1.13;;;;;;;;;;4976203;28;20029;-77
2024/01/23 01:25:01;;;;;;;4.55;1.30;;;;;;;;;;4993945;28;20026;-77
2024/01/23 01:27:27;;;;;;;4.50;1.10;;;;;;;;;;4993528;28;20051;-75
2024/01/23 01:29:52;;;;;;;3.20;1.27;;;;;;;;;;4993410;28;20212;-75
2024/01/23 01:32:17;;;;;;;7.82;1.13;;;;;;;;;;4975861;28;20046;-76
2024/01/23 01:34:42;;;;;;;3.75;1.00;;;;;;;;;;4993785;28;20608;-77
2024/01/23 01:37:08;;;;;;;3.57;0.90;;;;;;;;;;4995240;28;20022;-78
2024/01/23 01:39:33;;;;;;;5.40;1.10;;;;;;;;;;4994306;28;20260;-76
2024/01/23 01:41:58;;;;;;;7.00;0.90;;;;;;;;;;4976253;28;20019;-77
2024/01/23 01:44:24;;;;;;;3.97;1.00;;;;;;;;;;4993793;28;20088;-76
2024/01/23 01:46:51;;;;;;;4.18;1.05;;;;;;;;;;4993242;28;20299;-77
2024/01/23 01:49:16;;;;;;;3.63;0.90;;;;;;;;;;4993239;28;20366;-77
2024/01/23 01:51:42;;;;;;;3.95;1.02;;;;;;;;;;4992332;28;20032;-77
2024/01/23 01:54:07;;;;;;;5.07;1.05;;;;;;;;;;4993230;28;20102;-77
2024/01/23 01:56:34;;;;;;;5.68;1.02;;;;;;;;;;4993383;28;20084;-77
2024/01/23 01:58:59;;;;;;;4.25;0.95;;;;;;;;;;4993237;28;20351;-77
2024/01/23 02:01:27;;;;;;;3.45;0.85;;;;;;;;;;4975776;28;20034;-77
2024/01/23 02:03:52;;;;;;;3.95;0.90;;;;;;;;;;4992208;28;20022;-77
2024/01/23 02:06:17;;;;;;;3.65;0.88;;;;;;;;;;4992224;28;20022;-77
2024/01/23 02:08:43;;;;;;;5.32;1.40;;;;;;;;;;4995363;28;20034;-77
2024/01/23 02:11:08;;;;;;;9.48;1.63;;;;;;;;;;4995464;28;20038;-77
2024/01/23 02:13:33;;;;;;;3.22;0.80;;;;;;;;;;4996837;28;20113;-77
2024/01/23 02:15:59;;;;;;;6.30;1.30;;;;;;;;;;4996645;28;20069;-77
2024/01/23 02:18:24;;;;;;;5.97;1.15;;;;;;;;;;4996706;28;20259;-77
2024/01/23 02:20:49;;;;;;;3.67;0.93;;;;;;;;;;4996556;28;20027;-77
2024/01/23 02:23:15;;;;;;;5.97;1.13;;;;;;;;;;4996403;28;20076;-77
2024/01/23 02:25:41;;;;;;;7.10;1.10;;;;;;;;;;4996746;28;20347;-76
2024/01/23 02:28:07;;;;;;;4.90;0.82;;;;;;;;;;4996476;28;20023;-76
2024/01/23 02:30:34;;;;;;;6.32;1.25;;;;;;;;;;4978975;28;20032;-74
2024/01/23 02:33:00;;;;;;;7.63;1.70;;;;;;;;;;4994980;28;20065;-76
2024/01/23 02:35:25;;;;;;;8.73;0.93;;;;;;;;;;4996341;28;20042;-77
2024/01/23 02:37:50;;;;;;;4.10;1.00;;;;;;;;;;4996503;28;20030;-75
2024/01/23 02:40:16;;;;;;;4.30;1.08;;;;;;;;;;4996216;28;20330;-77
2024/01/23 02:42:41;;;;;;;5.97;0.90;;;;;;;;;;4995957;28;20034;-76
2024/01/23 02:45:06;;;;;;;5.63;1.33;;;;;;;;;;4996322;28;20105;-75
2024/01/23 02:47:32;;;;;;;7.22;1.10;;;;;;;;;;4994773;28;20041;-77
2024/01/23 02:49:58;;;;;;;3.77;1.13;;;;;;;;;;4996288;28;20058;-77
2024/01/23 02:52:25;;;;;;;4.53;1.05;;;;;;;;;;4995908;28;20256;-77
2024/01/23 02:54:50;;;;;;;6.70;1.10;;;;;;;;;;4978600;28;20027;-76
2024/01/23 02:57:15;;;;;;;6.03;1.08;;;;;;;;;;4978541;28;20448;-77
2024/01/23 02:59:40;;;;;;;7.30;1.45;;;;;;;;;;4995983;28;20493;-76
2024/01/23 03:02:06;;;;;;;3.60;1.00;;;;;;;;;;4978132;28;20041;-77
2024/01/23 03:04:31;;;;;;;6.73;1.10;;;;;;;;;;4994522;28;20512;-77
2024/01/23 03:06:56;;;;;;;3.97;0.90;;;;;;;;;;4994352;28;20821;-75
2024/01/23 03:09:21;;;;;;;6.53;1.00;;;;;;;;;;4995638;28;20790;-76
2024/01/23 03:11:47;;;;;;;4.97;1.00;;;;;;;;;;4996053;28;20805;-77
2024/01/23 03:14:12;;;;;;;1.40;0.77;;;;;;;;;;4994247;28;20307;-76
2024/01/23 03:16:37;;;;;;;4.90;1.02;;;;;;;;;;4995874;28;20033;-77
2024/01/23 03:19:02;;;;;;;3.03;0.80;;;;;;;;;;4995666;28;20493;-78
2024/01/23 03:21:28;;;;;;;4.00;1.60;;;;;;;;;;4996743;28;20267;-77
2024/01/23 03:23:53;;;;;;;3.83;1.00;;;;;;;;;;4995344;28;20080;-77
2024/01/23 03:26:19;;;;;;;5.03;1.10;;;;;;;;;;4995499;28;20076;-78
2024/01/23 03:28:44;;;;;;;8.38;1.40;;;;;;;;;;4995636;28;20022;-77
2024/01/23 03:31:09;;;;;;;4.23;1.00;;;;;;;;;;4995430;28;20042;-77
2024/01/23 03:33:35;;;;;;;5.25;1.05;;;;;;;;;;4997647;28;20747;-78
2024/01/23 03:36:00;;;;;;;3.88;1.10;;;;;;;;;;4997080;28;20059;-78
2024/01/23 03:38:25;;;;;;;4.63;0.90;;;;;;;;;;4998411;28;20026;-78
2024/01/23 03:40:50;;;;;;;3.80;0.90;;;;;;;;;;4997458;28;20437;-77
2024/01/23 03:43:16;;;;;;;3.25;0.70;;;;;;;;;;4995197;28;20073;-77
2024/01/23 03:45:41;;;;;;;4.75;0.85;;;;;;;;;;4995437;28;20037;-78
2024/01/23 03:48:06;;;;;;;5.30;0.75;;;;;;;;;;4995351;28;20380;-77
2024/01/23 03:50:32;;;;;;;5.22;0.60;;;;;;;;;;4978048;28;20026;-78
2024/01/23 03:52:57;;;;;;;1.95;0.60;;;;;;;;;;4995285;28;20030;-78
2024/01/23 03:55:23;;;;;;;4.90;0.98;;;;;;;;;;4994661;28;20374;-77
2024/01/23 03:57:48;;;;;;;1.77;0.70;;;;;;;;;;4995119;28;20030;-77
2024/01/23 04:00:14;;;;;;;3.22;0.73;;;;;;;;;;4994587;28;20260;-77
2024/01/23 04:02:39;;;;;;;1.77;0.73;;;;;;;;;;4994420;28;20054;-76
2024/01/23 04:05:05;;;;;;;2.17;0.85;;;;;;;;;;4994712;28;20053;-77
2024/01/23 04:07:31;;;;;;;3.28;0.80;;;;;;;;;;4976814;28;20022;-76
2024/01/23 04:09:57;;;;;;;3.45;0.77;;;;;;;;;;4994273;28;20477;-76
2024/01/23 04:12:22;;;;;;;3.90;0.90;;;;;;;;;;4976747;28;20069;-76
2024/01/23 04:14:47;;;;;;;1.50;0.80;;;;;;;;;;4994781;28;20500;-76
2024/01/23 04:17:12;;;;;;;6.65;1.85;;;;;;;;;;4994493;28;20026;-77
2024/01/23 04:19:38;;;;;;;4.63;1.30;;;;;;;;;;4976701;28;20038;-77
2024/01/23 04:22:03;;;;;;;4.07;0.80;;;;;;;;;;4976465;28;20034;-77
2024/01/23 04:24:28;;;;;;;2.97;1.00;;;;;;;;;;4994060;28;20322;-77
2024/01/23 04:26:54;;;;;;;3.20;0.80;;;;;;;;;;4993221;28;20054;-77
2024/01/23 04:29:19;;;;;;;3.53;1.20;;;;;;;;;;4994268;28;20022;-77
2024/01/23 04:31:44;;;;;;;4.03;1.10;;;;;;;;;;4993995;28;20030;-77
2024/01/23 04:34:09;;;;;;;1.93;0.80;;;;;;;;;;4994495;28;20256;-77
2024/01/23 04:36:35;;;;;;;5.45;0.98;;;;;;;;;;4994272;28;20303;-77
2024/01/23 04:39:00;;;;;;;1.90;1.07;;;;;;;;;;4994623;28;20029;-78
2024/01/23 04:41:26;;;;;;;3.37;0.93;;;;;;;;;;4994042;28;20259;-77
2024/01/23 04:43:51;;;;;;;8.20;1.20;;;;;;;;;;4976459;28;20287;-77
2024/01/23 04:46:16;;;;;;;3.38;0.98;;;;;;;;;;4994065;28;20042;-77
2024/01/23 04:48:42;;;;;;;4.93;1.25;;;;;;;;;;4993835;28;20105;-78
2024/01/23 04:51:07;;;;;;;3.65;0.90;;;;;;;;;;4993680;28;20026;-77
2024/01/23 04:53:32;;;;;;;7.45;1.10;;;;;;;;;;4993976;28;20106;-77
2024/01/23 04:55:58;;;;;;;3.70;1.00;;;;;;;;;;4976565;28;20022;-78
2024/01/23 04:58:23;;;;;;;5.72;1.15;;;;;;;;;;4977015;28;20030;-78
2024/01/23 05:00:49;;;;;;;5.73;1.30;;;;;;;;;;4993781;28;20026;-77
2024/01/23 05:03:14;;;;;;;4.03;1.55;;;;;;;;;;4992938;28;20276;-77
2024/01/23 05:05:39;;;;;;;4.57;1.23;;;;;;;;;;4976697;28;20374;-78
2024/01/23 05:08:05;;;;;;;7.27;2.07;;;;;;;;;;4994843;28;20089;-78
2024/01/23 05:10:30;;;;;;;5.00;1.77;;;;;;;;;;4995374;28;20260;-78
2024/01/23 05:12:55;;;;;;;6.43;1.73;;;;;;;;;;4995303;28;20397;-78
2024/01/23 05:15:20;;;;;;;6.50;1.60;;;;;;;;;;4994587;28;20441;-78
2024/01/23 05:17:46;;;;;;;4.47;1.40;;;;;;;;;;4993914;28;20612;-78
2024/01/23 05:20:11;;;;;;;6.23;1.80;;;;;;;;;;4993561;28;20121;-77
2024/01/23 05:22:36;;;;;;;3.22;1.10;;;;;;;;;;4993480;28;20319;-77
2024/01/23 05:25:03;;;;;;;4.47;0.80;;;;;;;;;;4976109;28;20068;-77
2024/01/23 05:27:28;;;;;;;4.35;0.80;;;;;;;;;;4993545;28;20720;-77
2024/01/23 05:29:53;;;;;;;10.65;1.27;;;;;;;;;;4993385;28;20077;-77
2024/01/23 05:32:18;;;;;;;4.40;1.20;;;;;;;;;;4993141;28;20393;-77
2024/01/23 05:34:44;;;;;;;4.97;1.10;;;;;;;;;;4993382;28;20042;-77
2024/01/23 05:37:10;;;;;;;3.57;1.13;;;;;;;;;;4993573;28;20268;-77
2024/01/23 05:39:37;;;;;;;4.97;1.02;;;;;;;;;;4975771;28;20287;-77
2024/01/23 05:42:03;;;;;;;3.83;0.90;;;;;;;;;;4993094;28;20041;-77
2024/01/23 05:44:28;;;;;;;3.03;0.93;;;;;;;;;;4979539;28;20405;-77
2024/01/23 05:46:53;;;;;;;4.17;1.10;;;;;;;;;;4997914;28;20125;-77
2024/01/23 05:49:19;;;;;;;2.42;1.10;;;;;;;;;;4981417;28;20271;-78
2024/01/23 05:51:44;;;;;;;4.97;1.03;;;;;;;;;;4998373;28;20401;-77
2024/01/23 05:54:09;;;;;;;2.60;0.73;;;;;;;;;;4997038;28;20694;-77
2024/01/23 05:56:34;;;;;;;5.00;0.70;;;;;;;;;;4996667;28;20815;-77
2024/01/23 05:59:00;;;;;;;2.00;0.73;;;;;;;;;;4997030;28;20799;-77
2024/01/23 06:01:26;;;;;;;2.30;0.60;;;;;;;;;;4979504;28;20818;-77
2024/01/23 06:03:51;;;;;;;4.00;1.10;;;;;;;;;;4996960;28;20053;-78
2024/01/23 06:06:19;;;;;;;4.43;1.00;;;;;;;;;;4982228;28;20028;-82
2024/01/23 06:08:44;;;;;;;1.10;0.60;;;;;;;;;;4997528;28;20031;-76
2024/01/23 06:11:09;;;;;;;2.28;0.50;;;;;;;;;;4995711;28;20089;-77
2024/01/23 06:13:35;;;;;;;1.73;0.70;;;;;;;;;;4995053;28;20018;-77
2024/01/23 06:16:00;;;;;;;2.95;0.70;;;;;;;;;;4996963;28;20260;-77
2024/01/23 06:18:25;;;;;;;4.40;0.75;;;;;;;;;;4995594;28;20550;-77
2024/01/23 06:20:50;;;;;;;3.78;0.70;;;;;;;;;;4995857;28;20022;-78
2024/01/23 06:23:15;;;;;;;3.63;1.00;;;;;;;;;;4997546;28;20023;-78
2024/01/23 06:25:41;;;;;;;3.95;1.00;;;;;;;;;;4997718;28;20264;-78
2024/01/23 06:28:06;;;;;;;2.63;0.63;;;;;;;;;;4997098;28;20030;-77
2024/01/23 06:30:31;;;;;;;5.18;1.00;;;;;;;;;;4978863;28;20278;-77
2024/01/23 06:32:57;;;;;;;3.73;0.93;;;;;;;;;;4997946;28;20169;-78
2024/01/23 06:35:22;;;;;;;3.05;0.88;;;;;;;;;;4996116;28;20355;-77
2024/01/23 06:37:47;;;;;;;2.95;0.88;;;;;;;;;;4996760;28;20025;-78
2024/01/23 06:40:13;;;;;;;1.33;0.45;;;;;;;;;;4979735;28;20436;-78
2024/01/23 06:42:38;;;;;;;3.72;0.90;;;;;;;;;;4979671;28;20057;-78
2024/01/23 06:45:04;;;;;;;2.97;1.10;;;;;;;;;;4979603;28;20034;-78
2024/01/23 06:47:30;;;;;;;2.28;0.70;;;;;;;;;;4995575;28;20026;-78
2024/01/23 06:49:55;;;;;;;1.45;0.55;;;;;;;;;;4996878;28;20026;-77
2024/01/23 06:52:20;;;;;;;3.80;0.80;;;;;;;;;;4996025;28;20397;-77
2024/01/23 06:54:45;;;;;;;1.63;0.57;;;;;;;;;;4995412;28;20037;-78
2024/01/23 06:57:11;;;;;;;3.93;1.20;;;;;;;;;;4996155;28;20065;-78
2024/01/23 06:59:36;;;;;;;4.53;2.13;;;;;;;;;;4995005;28;20411;-78
2024/01/23 07:02:01;;;;;;;11.17;3.27;;;;;;;;;;4996356;28;20027;-77
2024/01/23 07:04:26;;;;;;;3.70;1.30;;;;;;;;;;4997277;28;20322;-78
2024/01/23 07:06:51;;;;;;;4.70;1.00;;;;;;;;;;4995826;28;20030;-78
2024/01/23 07:09:17;;;;;;;2.67;0.97;;;;;;;;;;4996805;28;20263;-78
2024/01/23 07:11:42;;;;;;;1.60;0.70;;;;;;;;;;4996406;28;20252;-78
2024/01/23 07:14:08;;;;;;;2.10;0.88;;;;;;;;;;4996079;28;20272;-78
2024/01/23 07:16:33;;;;;;;3.30;0.88;;;;;;;;;;4978720;28;20084;-78
2024/01/23 07:18:59;;;;;;;2.72;0.80;;;;;;;;;;4978881;28;20121;-78
2024/01/23 07:21:24;;;;;;;2.20;0.77;;;;;;;;;;4995907;28;20398;-77
2024/01/23 07:23:49;;;;;;;2.35;0.85;;;;;;;;;;4978405;28;20522;-77
2024/01/23 07:26:14;;;;;;;3.80;0.70;;;;;;;;;;4996707;28;20030;-77
2024/01/23 07:28:39;;;;;;;2.47;0.70;;;;;;;;;;4978485;28;20252;-77
2024/01/23 07:31:05;;;;;;;3.83;0.57;;;;;;;;;;4994685;28;20030;-78
2024/01/23 07:33:30;;;;;;;4.55;0.70;;;;;;;;;;4996722;28;20244;-77
2024/01/23 07:35:55;;;;;;;1.83;0.50;;;;;;;;;;4995754;28;20038;-78
2024/01/23 07:38:20;;;;;;;1.67;0.67;;;;;;;;;;4996103;28;20330;-78
2024/01/23 07:40:46;;;;;;;1.77;0.63;;;;;;;;;;4996316;28;20256;-78
2024/01/23 07:43:11;;;;;;;2.77;0.70;;;;;;;;;;4995966;28;20621;-78
2024/01/23 07:45:37;;;;;;;4.65;0.40;;;;;;;;;;4977929;28;20674;-77
2024/01/23 07:48:02;;;;;;;1.30;0.52;;;;;;;;;;4977674;28;20026;-78
2024/01/23 07:50:27;;;;;;;2.10;0.77;;;;;;;;;;4977433;28;20493;-78
2024/01/23 07:52:55;;;;;;;3.77;0.80;;;;;;;;;;4994730;28;20548;-79
2024/01/23 07:55:22;;;;;;;1.67;0.63;;;;;;;;;;4994951;28;20260;-78
2024/01/23 07:57:50;;;;;;;4.30;0.95;;;;;;;;;;4993095;28;20023;-78
2024/01/23 08:00:18;;;;;;;1.65;0.73;;;;;;;;;;4993293;28;20022;-78
2024/01/23 08:02:44;;;;;;;1.25;0.40;;;;;;;;;;4994378;28;20026;-77
2024/01/23 08:05:09;;;;;;;2.28;0.95;;;;;;;;;;4994684;28;20022;-78
2024/01/23 08:07:34;;;;;;;3.33;0.75;;;;;;;;;;4994350;28;20022;-77
2024/01/23 08:10:02;;;;;;;2.40;1.03;;;;;;;;;;4992982;28;20109;-77
2024/01/23 08:12:27;;;;;;;0.85;0.52;;;;;;;;;;4977592;28;20271;-77
2024/01/23 08:14:53;;;;;;;5.10;0.90;;;;;;;;;;4977950;28;20030;-77
2024/01/23 08:17:19;;;;;;;2.13;0.80;;;;;;;;;;4995265;28;20343;-77
2024/01/23 08:19:45;;;;;;;3.33;1.00;;;;;;;;;;4994809;28;20267;-78
2024/01/23 08:22:15;;;;;;;1.27;0.63;;;;;;;;;;4994133;28;20022;-78
2024/01/23 08:24:40;;;;;;;5.15;1.00;;;;;;;;;;4994645;28;20022;-77
2024/01/23 08:27:05;;;;;;;2.73;0.60;;;;;;;;;;4994536;28;20030;-78
2024/01/23 08:29:30;;;;;;;1.60;0.60;;;;;;;;;;4994189;28;20256;-77
2024/01/23 08:31:56;;;;;;;3.20;0.80;;;;;;;;;;4994732;28;20100;-78
2024/01/23 08:34:22;;;;;;;4.40;1.00;;;;;;;;;;4994935;28;20030;-77
2024/01/23 08:36:48;;;;;;;7.93;1.00;;;;;;;;;;4995248;28;20667;-77
2024/01/23 08:39:13;;;;;;;6.85;0.95;;;;;;;;;;4993520;28;20054;-78
2024/01/23 08:41:38;;;;;;;3.53;0.93;;;;;;;;;;4994603;28;20022;-78
2024/01/23 08:44:03;;;;;;;2.87;0.80;;;;;;;;;;4994951;28;20148;-78
2024/01/23 08:46:29;;;;;;;3.13;0.93;;;;;;;;;;4995842;28;20280;-78
2024/01/23 08:48:55;;;;;;;2.67;0.90;;;;;;;;;;4994286;28;20022;-77
2024/01/23 08:51:24;;;;;;;3.77;1.00;;;;;;;;;;4993504;28;20027;-76
2024/01/23 08:53:49;;;;;;;5.30;1.10;;;;;;;;;;4993395;28;20259;-77
2024/01/23 08:56:18;;;;;;;3.40;0.98;;;;;;;;;;4993243;28;20022;-76
2024/01/23 08:58:43;;;;;;;6.28;1.23;;;;;;;;;;4993711;28;20121;-77
2024/01/23 09:01:08;;;;;;;3.10;0.90;;;;;;;;;;4993690;28;20026;-77
2024/01/23 09:03:34;;;;;;;5.10;1.20;;;;;;;;;;4992995;28;20030;-76
2024/01/23 09:05:59;;;;;;;5.00;1.08;;;;;;;;;;4993064;28;20028;-76
2024/01/23 09:08:24;;;;;;;7.43;1.17;;;;;;;;;;4975602;28;20018;-76
2024/01/23 09:10:49;;;;;;;5.47;1.07;;;;;;;;;;4993312;28;20248;-76
2024/01/23 09:13:14;;;;;;;5.18;1.00;;;;;;;;;;4993017;28;20351;-76
2024/01/23 09:15:40;;;;;;;6.03;1.10;;;;;;;;;;4992683;28;20073;-76
2024/01/23 09:18:05;;;;;;;4.65;1.00;;;;;;;;;;4992117;28;20260;-76
2024/01/23 09:20:31;;;;;;;3.92;1.13;;;;;;;;;;4992893;28;20029;-77
2024/01/23 09:22:56;;;;;;;5.93;1.20;;;;;;;;;;4975166;28;20042;-77
2024/01/23 09:25:21;;;;;;;7.32;1.10;;;;;;;;;;4993085;28;20256;-76
2024/01/23 09:27:48;;;;;;;8.63;1.40;;;;;;;;;;4992805;28;20030;-76
2024/01/23 09:30:14;;;;;;;3.42;1.00;;;;;;;;;;4992806;28;20022;-75
2024/01/23 09:32:39;;;;;;;5.35;1.20;;;;;;;;;;4991259;28;20110;-77
2024/01/23 09:35:06;;;;;;;3.50;1.00;;;;;;;;;;4993117;28;20394;-76
2024/01/23 09:37:31;;;;;;;8.02;1.23;;;;;;;;;;4992903;28;20259;-76
2024/01/23 09:39:57;;;;;;;7.07;1.02;;;;;;;;;;4992804;28;20097;-75
2024/01/23 09:42:25;;;;;;;5.70;1.07;;;;;;;;;;4992697;28;20034;-76
2024/01/23 09:44:53;;;;;;;3.15;1.00;;;;;;;;;;4991376;28;20338;-75
2024/01/23 09:47:20;;;;;;;1.58;0.68;;;;;;;;;;4992778;28;20080;-75
2024/01/23 09:49:46;;;;;;;6.78;1.33;;;;;;;;;;4992537;28;20022;-75
2024/01/23 09:52:12;;;;;;;5.13;1.25;;;;;;;;;;4974965;28;20045;-76
2024/01/23 09:54:37;;;;;;;6.45;1.50;;;;;;;;;;4975487;28;20120;-74
2024/01/23 09:57:03;;;;;;;7.38;1.40;;;;;;;;;;4975736;28;20477;-76
2024/01/23 09:59:28;;;;;;;5.05;1.10;;;;;;;;;;4992199;28;20028;-76
2024/01/23 10:01:55;;;;;;;5.40;1.40;;;;;;;;;;4972147;28;20409;-75
2024/01/23 10:04:21;;;;;;;3.72;1.10;;;;;;;;;;4974140;28;20033;-76
2024/01/23 10:06:46;;;;;;;5.40;1.27;;;;;;;;;;4973245;28;20030;-76
2024/01/23 10:09:12;;;;;;;5.07;0.93;;;;;;;;;;4991579;28;20049;-79
2024/01/23 10:11:38;;;;;;;6.32;1.08;;;;;;;;;;4984694;28;20493;-78
2024/01/23 10:14:04;;;;;;;4.95;1.05;;;;;;;;;;5002696;28;20022;-79
2024/01/23 10:16:30;;;;;;;6.80;1.67;;;;;;;;;;5003930;28;20022;-80
2024/01/23 10:18:55;;;;;;;4.28;0.90;;;;;;;;;;4986088;28;20544;-78
2024/01/23 10:21:21;;;;;;;6.22;0.90;;;;;;;;;;5004253;28;20049;-79
2024/01/23 10:23:50;;;;;;;5.07;1.38;;;;;;;;;;5005167;28;20026;-79
2024/01/23 10:26:17;;;;;;;8.50;1.55;;;;;;;;;;5004727;28;20081;-79
2024/01/23 10:28:43;;;;;;;7.53;1.40;;;;;;;;;;5002182;28;20105;-79
2024/01/23 10:31:09;;;;;;;4.95;1.00;;;;;;;;;;5006566;28;20022;-80
2024/01/23 10:33:36;;;;;;;8.07;1.10;;;;;;;;;;5004699;28;20034;-80
2024/01/23 10:36:05;;;;;;;4.50;1.17;;;;;;;;;;5005731;28;20370;-80
2024/01/23 10:38:31;;;;;;;5.65;1.35;;;;;;;;;;4987984;28;20077;-79
2024/01/23 10:40:58;;;;;;;7.07;1.70;;;;;;;;;;5005303;28;20041;-79
2024/01/23 10:43:26;;;;;;;10.13;1.10;;;;;;;;;;4988064;28;20161;-80
2024/01/23 10:45:53;;;;;;;4.70;1.58;;;;;;;;;;5003975;28;20060;-80
2024/01/23 10:48:19;;;;;;;5.07;1.30;;;;;;;;;;5004664;28;20038;-79
2024/01/23 10:51:19;;;;;;;8.35;1.27;;;;;;;;;;5002990;28;20104;-80
2024/01/23 10:53:59;;;;;;;3.83;1.08;;;;;;;;;;5002987;28;20030;-79
2024/01/23 10:56:28;;;;;;;4.22;1.40;;;;;;;;;;5001530;28;20029;-81
2024/01/23 10:59:00;;;;;;;6.03;1.40;;;;;;;;;;5001658;28;20026;-80
2024/01/23 11:01:27;;;;;;;7.18;1.65;;;;;;;;;;5005385;28;20023;-80
2024/01/23 11:03:53;;;;;;;6.25;1.73;;;;;;;;;;5006986;28;20023;-80
2024/01/23 11:06:25;;;;;;;6.30;1.55;;;;;;;;;;5006890;28;20049;-80
2024/01/23 11:09:04;;;;;;;6.53;1.52;;;;;;;;;;5005867;28;20120;-80
2024/01/23 11:11:40;;;;;;;4.70;1.30;;;;;;;;;;5005370;28;20025;-79
2024/01/23 11:14:15;;;;;;;4.13;1.10;;;;;;;;;;5006386;28;20023;-80
2024/01/23 11:16:40;;;;;;;8.27;1.33;;;;;;;;;;5007346;28;20053;-79
2024/01/23 11:19:05;;;;;;;7.85;1.50;;;;;;;;;;5008057;28;20026;-80
2024/01/23 11:21:30;;;;;;;5.83;1.37;;;;;;;;;;5008668;28;20022;-80
2024/01/23 11:24:01;;;;;;;13.00;1.60;;;;;;;;;;5007507;28;20280;-80
2024/01/23 11:26:26;;;;;;;6.88;1.40;;;;;;;;;;4989244;28;20248;-79
2024/01/23 11:28:53;;;;;;;4.20;1.30;;;;;;;;;;5002228;28;20454;-79
2024/01/23 11:31:21;;;;;;;9.43;1.65;;;;;;;;;;4980812;28;20053;-80
2024/01/23 11:33:47;;;;;;;6.47;1.50;;;;;;;;;;4998896;28;20022;-79
2024/01/23 11:36:14;;;;;;;8.75;1.40;;;;;;;;;;4998289;28;20034;-80
2024/01/23 11:38:48;;;;;;;9.15;1.48;;;;;;;;;;4998408;28;20026;-80
2024/01/23 11:41:23;;;;;;;5.97;1.63;;;;;;;;;;4998107;28;20026;-81
2024/01/23 11:44:00;;;;;;;4.57;1.27;;;;;;;;;;4996681;28;20516;-79
2024/01/23 11:46:25;;;;;;;2.72;0.98;;;;;;;;;;4997013;28;20038;-80
2024/01/23 11:48:53;;;;;;;5.57;1.40;;;;;;;;;;4980663;28;20366;-80
2024/01/23 11:51:18;;;;;;;6.65;2.05;;;;;;;;;;4997743;28;20560;-79
2024/01/23 11:53:45;;;;;;;9.43;1.52;;;;;;;;;;4980489;28;20038;-81
2024/01/23 11:56:11;;;;;;;6.80;1.70;;;;;;;;;;4998206;28;20473;-82
2024/01/23 11:58:36;;;;;;;7.60;1.23;;;;;;;;;;4998653;28;20041;-80
2024/01/23 12:01:04;;;;;;;6.95;1.48;;;;;;;;;;4997886;28;20034;-81
2024/01/23 12:03:29;;;;;;;3.90;2.03;;;;;;;;;;4997889;28;20034;-80
2024/01/23 12:05:55;;;;;;;7.60;1.70;;;;;;;;;;4998044;28;20316;-81
2024/01/23 12:08:22;;;;;;;8.60;1.40;;;;;;;;;;4980986;28;20057;-79
2024/01/23 12:10:47;;;;;;;6.20;1.63;;;;;;;;;;4998486;28;20600;-81
2024/01/23 12:13:13;;;;;;;4.90;1.17;;;;;;;;;;4998194;28;20054;-79
2024/01/23 12:15:38;;;;;;;8.15;1.52;;;;;;;;;;4998009;28;20585;-81
2024/01/23 12:18:04;;;;;;;11.38;1.88;;;;;;;;;;4997802;28;20034;-80
2024/01/23 12:20:30;;;;;;;6.85;1.58;;;;;;;;;;4980929;28;20030;-80
2024/01/23 12:22:55;;;;;;;7.30;1.75;;;;;;;;;;4998551;28;20035;-81
2024/01/23 12:25:21;;;;;;;10.93;1.73;;;;;;;;;;4999226;28;20117;-80
2024/01/23 12:27:48;;;;;;;7.20;1.50;;;;;;;;;;4997038;28;20018;-79
2024/01/23 12:30:14;;;;;;;11.93;1.58;;;;;;;;;;4997942;28;20053;-80
2024/01/23 12:32:40;;;;;;;5.35;1.27;;;;;;;;;;4998229;28;20477;-77
2024/01/23 12:35:12;;;;;;;4.47;1.40;;;;;;;;;;4977185;28;20054;-77
2024/01/23 12:37:39;;;;;;;8.75;1.30;;;;;;;;;;4993656;28;20083;-76
2024/01/23 12:40:12;;;;;;;4.70;1.48;;;;;;;;;;4975957;28;20022;-77
2024/01/23 12:42:43;;;;;;;7.17;1.10;;;;;;;;;;4975755;28;20045;-77
2024/01/23 12:45:11;;;;;;;6.40;1.33;;;;;;;;;;4975890;28;20351;-76
2024/01/23 12:47:36;;;;;;;10.20;1.70;;;;;;;;;;4993383;28;20041;-76
2024/01/23 12:50:03;;;;;;;5.30;1.45;;;;;;;;;;4993965;28;20022;-76
2024/01/23 12:52:29;;;;;;;5.97;1.45;;;;;;;;;;4993697;28;20033;-76
2024/01/23 12:54:54;;;;;;;4.97;1.33;;;;;;;;;;4993701;28;20448;-77
2024/01/23 12:57:19;;;;;;;4.10;1.20;;;;;;;;;;4993480;28;20478;-77
2024/01/23 12:59:44;;;;;;;9.48;1.60;;;;;;;;;;4993467;28;20037;-77
2024/01/23 13:02:10;;;;;;;4.60;1.40;;;;;;;;;;4975396;28;20030;-77
2024/01/23 13:04:36;;;;;;;11.93;1.58;;;;;;;;;;4991718;28;20367;-77
2024/01/23 13:07:02;;;;;;;6.47;1.38;;;;;;;;;;4993180;28;20057;-77
2024/01/23 13:09:27;;;;;;;9.80;1.40;;;;;;;;;;4975793;28;20029;-76
2024/01/23 13:11:53;;;;;;;6.97;1.45;;;;;;;;;;4993235;28;20026;-76
2024/01/23 13:14:19;;;;;;;6.97;1.42;;;;;;;;;;4993025;28;20038;-76
2024/01/23 13:16:44;;;;;;;6.65;1.80;;;;;;;;;;4992977;28;20026;-77
2024/01/23 13:19:09;;;;;;;7.53;1.80;;;;;;;;;;4975352;28;20104;-77
2024/01/23 13:21:34;;;;;;;5.27;1.27;;;;;;;;;;4975749;28;20030;-76
2024/01/23 13:24:00;;;;;;;5.40;1.60;;;;;;;;;;4975432;28;20279;-77
2024/01/23 13:26:25;;;;;;;6.47;1.83;;;;;;;;;;4975527;28;20478;-77
2024/01/23 13:28:51;;;;;;;4.57;1.58;;;;;;;;;;4992877;28;20692;-77
2024/01/23 13:31:17;;;;;;;7.20;1.48;;;;;;;;;;4992897;28;20398;-77
2024/01/23 13:33:42;;;;;;;8.25;1.83;;;;;;;;;;4992913;28;20018;-77
2024/01/23 13:36:08;;;;;;;10.07;1.80;;;;;;;;;;4992133;28;20034;-77
2024/01/23 13:38:34;;;;;;;8.18;1.90;;;;;;;;;;4995190;28;20633;-78
2024/01/23 13:40:59;;;;;;;4.70;1.20;;;;;;;;;;4996425;28;20057;-78
2024/01/23 13:43:25;;;;;;;7.15;1.40;;;;;;;;;;4979827;28;20272;-79
2024/01/23 13:45:50;;;;;;;11.73;1.55;;;;;;;;;;4980192;28;20034;-79
2024/01/23 13:48:15;;;;;;;6.35;1.33;;;;;;;;;;4997470;28;20038;-79
2024/01/23 13:50:40;;;;;;;5.13;1.30;;;;;;;;;;4979988;28;20428;-79
2024/01/23 13:53:06;;;;;;;4.20;1.50;;;;;;;;;;4980482;28;20280;-79
2024/01/23 13:55:31;;;;;;;13.68;1.55;;;;;;;;;;4996438;28;20061;-79
2024/01/23 13:57:56;;;;;;;6.25;1.90;;;;;;;;;;4980221;28;20022;-79
2024/01/23 14:00:22;;;;;;;7.38;1.60;;;;;;;;;;4996466;28;20371;-78
2024/01/23 14:02:47;;;;;;;8.27;1.77;;;;;;;;;;4995661;28;20041;-78
2024/01/23 14:05:14;;;;;;;4.43;1.17;;;;;;;;;;4979772;28;20023;-78
2024/01/23 14:07:40;;;;;;;10.35;1.73;;;;;;;;;;4998081;28;20077;-77
2024/01/23 14:10:08;;;;;;;9.00;1.23;;;;;;;;;;4998143;28;20034;-77
2024/01/23 14:12:34;;;;;;;10.60;1.73;;;;;;;;;;4980737;28;20089;-78
2024/01/23 14:14:59;;;;;;;10.57;2.03;;;;;;;;;;4998725;28;20026;-78
2024/01/23 14:17:26;;;;;;;11.90;1.80;;;;;;;;;;4997024;28;20034;-78
2024/01/23 14:19:51;;;;;;;8.18;1.65;;;;;;;;;;4998114;28;20255;-79
2024/01/23 14:22:16;;;;;;;10.20;1.50;;;;;;;;;;4997217;28;20030;-78
2024/01/23 14:24:42;;;;;;;6.85;1.60;;;;;;;;;;4998432;28;20252;-77
2024/01/23 14:27:07;;;;;;;5.82;1.52;;;;;;;;;;4996601;28;20028;-77
2024/01/23 14:29:32;;;;;;;7.70;2.05;;;;;;;;;;4996436;28;20030;-76
2024/01/23 14:31:58;;;;;;;6.05;1.73;;;;;;;;;;4996382;28;20101;-76
2024/01/23 14:34:24;;;;;;;8.77;2.00;;;;;;;;;;4996412;28;20030;-76